createdAt,value
2023-04-04T00:00:08.741Z,990.15
2023-04-04T00:01:09.191Z,990.12
2023-04-04T00:02:09.612Z,990.10
2023-04-04T00:03:10.296Z,990.12
2023-04-04T00:04:10.247Z,990.12
2023-04-04T00:05:10.365Z,990.12
2023-04-04T00:06:10.802Z,990.07
2023-04-04T00:07:11.241Z,990.09
2023-04-04T00:08:11.697Z,990.09
2023-04-04T00:09:12.152Z,990.10
2023-04-04T00:10:12.591Z,990.09
2023-04-04T00:11:13.047Z,990.06
2023-04-04T00:12:13.520Z,990.04
2023-04-04T00:13:14.009Z,990.04
2023-04-04T00:14:14.494Z,990.03
2023-04-04T00:15:14.970Z,990.04
2023-04-04T00:16:15.475Z,990.05
2023-04-04T00:17:16.014Z,990.01
2023-04-04T00:18:16.509Z,989.97
2023-04-04T00:19:16.979Z,989.97
2023-04-04T00:20:17.414Z,989.95
2023-04-04T00:21:17.836Z,989.94
2023-04-04T00:22:18.277Z,989.94
2023-04-04T00:23:18.695Z,989.94
2023-04-04T00:24:19.114Z,989.93
2023-04-04T00:25:19.530Z,989.93
2023-04-04T00:26:19.963Z,989.93
2023-04-04T00:27:20.429Z,989.93
2023-04-04T00:28:20.891Z,989.91
2023-04-04T00:29:21.374Z,989.90
2023-04-04T00:30:21.880Z,989.88
2023-04-04T00:31:22.401Z,989.88
2023-04-04T00:32:23.031Z,989.86
2023-04-04T00:33:23.069Z,989.89
2023-04-04T00:34:23.584Z,989.86
2023-04-04T00:35:24.061Z,989.88
2023-04-04T00:36:24.515Z,989.87
2023-04-04T00:37:25.002Z,989.82
2023-04-04T00:38:25.477Z,989.84
2023-04-04T00:39:25.949Z,989.85
2023-04-04T00:40:26.426Z,989.84
2023-04-04T00:41:26.916Z,989.85
2023-04-04T00:42:27.439Z,989.84
2023-04-04T00:43:27.946Z,989.82
2023-04-04T00:44:28.462Z,989.83
2023-04-04T00:45:28.956Z,989.83
2023-04-04T00:46:29.497Z,989.82
2023-04-04T00:47:30.039Z,989.82
2023-04-04T00:48:30.594Z,989.81
2023-04-04T00:49:31.069Z,989.81
2023-04-04T00:50:31.561Z,989.79
2023-04-04T00:51:32.085Z,989.78
2023-04-04T00:52:32.617Z,989.76
2023-04-04T00:53:33.106Z,989.78
2023-04-04T00:54:33.590Z,989.78
2023-04-04T00:55:34.075Z,989.78
2023-04-04T00:56:34.549Z,989.77
2023-04-04T00:57:35.019Z,989.74
2023-04-04T00:58:35.502Z,989.75
2023-04-04T00:59:35.996Z,989.70
2023-04-04T01:00:36.480Z,989.67
2023-04-04T01:01:37.154Z,989.67
2023-04-04T01:02:37.184Z,989.68
2023-04-04T01:03:37.701Z,989.65
2023-04-04T01:04:38.253Z,989.65
2023-04-04T01:05:38.361Z,989.66
2023-04-04T01:06:38.836Z,989.63
2023-04-04T01:07:39.344Z,989.65
2023-04-04T01:08:39.813Z,989.65
2023-04-04T01:09:40.285Z,989.65
2023-04-04T01:10:41.087Z,989.63
2023-04-04T01:11:41.158Z,989.64
2023-04-04T01:12:41.710Z,989.61
2023-04-04T01:13:42.198Z,989.59
2023-04-04T01:14:42.669Z,989.59
2023-04-04T01:15:43.166Z,989.59
2023-04-04T01:16:43.665Z,989.58
2023-04-04T01:17:44.162Z,989.57
2023-04-04T01:18:44.632Z,989.55
2023-04-04T01:19:45.114Z,989.56
2023-04-04T01:20:45.652Z,989.56
2023-04-04T01:21:46.158Z,989.55
2023-04-04T01:22:46.616Z,989.52
2023-04-04T01:23:47.188Z,989.53
2023-04-04T01:24:47.680Z,989.52
2023-04-04T01:25:48.187Z,989.56
2023-04-04T01:26:48.702Z,989.54
2023-04-04T01:27:49.196Z,989.51
2023-04-04T01:28:49.670Z,989.51
2023-04-04T01:29:50.142Z,989.50
2023-04-04T01:30:50.676Z,989.46
2023-04-04T01:31:51.185Z,989.45
2023-04-04T01:32:51.719Z,989.41
2023-04-04T01:33:52.278Z,989.41
2023-04-04T01:34:52.774Z,989.43
2023-04-04T01:35:53.249Z,989.40
2023-04-04T01:36:53.758Z,989.39
2023-04-04T01:37:54.270Z,989.37
2023-04-04T01:38:54.764Z,989.38
2023-04-04T01:39:55.252Z,989.39
2023-04-04T01:40:55.746Z,989.39
2023-04-04T01:41:56.227Z,989.36
2023-04-04T01:42:56.709Z,989.40
2023-04-04T01:43:57.187Z,989.41
2023-04-04T01:44:57.678Z,989.41
2023-04-04T01:45:58.160Z,989.43
2023-04-04T01:46:58.669Z,989.46
2023-04-04T01:47:59.180Z,989.46
2023-04-04T01:48:59.722Z,989.46
2023-04-04T01:50:00.207Z,989.47
2023-04-04T01:51:00.679Z,989.49
2023-04-04T01:52:01.161Z,989.48
2023-04-04T01:53:01.633Z,989.46
2023-04-04T01:54:02.111Z,989.47
2023-04-04T01:55:02.590Z,989.45
2023-04-04T01:56:03.082Z,989.45
2023-04-04T01:57:03.567Z,989.46
2023-04-04T01:58:04.074Z,989.44
2023-04-04T01:59:04.597Z,989.45
2023-04-04T02:00:05.090Z,989.46
2023-04-04T02:01:05.561Z,989.45
2023-04-04T02:02:06.073Z,989.45
2023-04-04T02:03:06.602Z,989.43
2023-04-04T02:04:07.219Z,989.44
2023-04-04T02:05:08.197Z,989.45
2023-04-04T02:06:07.511Z,989.45
2023-04-04T02:07:07.979Z,989.45
2023-04-04T02:08:08.448Z,989.44
2023-04-04T02:09:08.920Z,989.46
2023-04-04T02:10:09.399Z,989.48
2023-04-04T02:11:09.861Z,989.50
2023-04-04T02:12:10.326Z,989.47
2023-04-04T02:13:10.787Z,989.50
2023-04-04T02:14:11.263Z,989.52
2023-04-04T02:15:11.751Z,989.52
2023-04-04T02:16:12.358Z,989.50
2023-04-04T02:17:12.865Z,989.49
2023-04-04T02:18:13.347Z,989.50
2023-04-04T02:19:13.876Z,989.51
2023-04-04T02:20:14.374Z,989.52
2023-04-04T02:21:14.861Z,989.52
2023-04-04T02:22:15.345Z,989.51
2023-04-04T02:23:15.818Z,989.51
2023-04-04T02:24:16.301Z,989.50
2023-04-04T02:25:16.795Z,989.49
2023-04-04T02:26:17.277Z,989.48
2023-04-04T02:27:17.768Z,989.46
2023-04-04T02:28:18.259Z,989.46
2023-04-04T02:29:18.751Z,989.44
2023-04-04T02:30:19.227Z,989.42
2023-04-04T02:31:19.738Z,989.41
2023-04-04T02:32:20.237Z,989.40
2023-04-04T02:33:20.728Z,989.41
2023-04-04T02:34:21.201Z,989.39
2023-04-04T02:35:21.680Z,989.40
2023-04-04T02:36:22.181Z,989.40
2023-04-04T02:37:22.726Z,989.41
2023-04-04T02:38:23.219Z,989.40
2023-04-04T02:39:23.692Z,989.39
2023-04-04T02:40:24.170Z,989.41
2023-04-04T02:41:24.648Z,989.41
2023-04-04T02:42:25.157Z,989.38
2023-04-04T02:43:25.643Z,989.41
2023-04-04T02:44:26.132Z,989.38
2023-04-04T02:45:26.639Z,989.39
2023-04-04T02:46:27.190Z,989.36
2023-04-04T02:47:27.720Z,989.37
2023-04-04T02:48:28.256Z,989.36
2023-04-04T02:49:28.744Z,989.38
2023-04-04T02:50:29.209Z,989.40
2023-04-04T02:51:29.691Z,989.39
2023-04-04T02:52:30.176Z,989.41
2023-04-04T02:53:30.645Z,989.41
2023-04-04T02:54:31.156Z,989.42
2023-04-04T02:55:31.643Z,989.43
2023-04-04T02:56:32.112Z,989.40
2023-04-04T02:57:32.592Z,989.42
2023-04-04T02:58:33.076Z,989.42
2023-04-04T02:59:33.562Z,989.42
2023-04-04T03:00:34.058Z,989.43
2023-04-04T03:01:34.606Z,989.41
2023-04-04T03:02:35.369Z,989.43
2023-04-04T03:03:35.730Z,989.43
2023-04-04T03:04:35.821Z,989.43
2023-04-04T03:05:36.314Z,989.46
2023-04-04T03:06:36.811Z,989.42
2023-04-04T03:07:37.307Z,989.44
2023-04-04T03:08:37.780Z,989.39
2023-04-04T03:09:38.285Z,989.41
2023-04-04T03:10:39.028Z,989.38
2023-04-04T03:11:39.180Z,989.39
2023-04-04T03:12:39.674Z,989.37
2023-04-04T03:13:40.162Z,989.39
2023-04-04T03:14:40.642Z,989.36
2023-04-04T03:15:41.128Z,989.37
2023-04-04T03:16:41.613Z,989.36
2023-04-04T03:17:42.224Z,989.37
2023-04-04T03:18:42.715Z,989.37
2023-04-04T03:19:43.188Z,989.33
2023-04-04T03:20:43.666Z,989.33
2023-04-04T03:21:44.134Z,989.31
2023-04-04T03:22:44.639Z,989.30
2023-04-04T03:23:45.110Z,989.34
2023-04-04T03:24:45.624Z,989.33
2023-04-04T03:25:46.129Z,989.32
2023-04-04T03:26:46.622Z,989.30
2023-04-04T03:27:47.098Z,989.32
2023-04-04T03:28:47.572Z,989.32
2023-04-04T03:29:48.051Z,989.31
2023-04-04T03:30:48.535Z,989.31
2023-04-04T03:31:49.073Z,989.32
2023-04-04T03:32:49.631Z,989.32
2023-04-04T03:33:50.168Z,989.32
2023-04-04T03:34:50.673Z,989.34
2023-04-04T03:35:51.189Z,989.35
2023-04-04T03:36:51.673Z,989.32
2023-04-04T03:37:52.144Z,989.32
2023-04-04T03:38:52.633Z,989.30
2023-04-04T03:39:53.121Z,989.29
2023-04-04T03:40:53.595Z,989.32
2023-04-04T03:41:54.065Z,989.30
2023-04-04T03:42:54.534Z,989.31
2023-04-04T03:43:55.127Z,989.32
2023-04-04T03:44:55.635Z,989.32
2023-04-04T03:45:56.148Z,989.31
2023-04-04T03:46:56.652Z,989.32
2023-04-04T03:47:57.181Z,989.34
2023-04-04T03:48:57.738Z,989.33
2023-04-04T03:49:58.256Z,989.33
2023-04-04T03:50:58.756Z,989.31
2023-04-04T03:51:59.256Z,989.32
2023-04-04T03:52:59.792Z,989.31
2023-04-04T03:54:00.300Z,989.31
2023-04-04T03:55:00.816Z,989.33
2023-04-04T03:56:01.302Z,989.31
2023-04-04T03:57:01.785Z,989.32
2023-04-04T03:58:02.269Z,989.33
2023-04-04T03:59:02.773Z,989.33
2023-04-04T04:00:03.316Z,989.32
2023-04-04T04:01:03.809Z,989.33
2023-04-04T04:02:04.290Z,989.30
2023-04-04T04:03:04.903Z,989.33
2023-04-04T04:04:04.908Z,989.31
2023-04-04T04:05:05.411Z,989.35
2023-04-04T04:06:05.883Z,989.38
2023-04-04T04:07:06.382Z,989.37
2023-04-04T04:08:06.882Z,989.39
2023-04-04T04:09:07.359Z,989.41
2023-04-04T04:10:07.827Z,989.41
2023-04-04T04:11:08.319Z,989.37
2023-04-04T04:12:08.858Z,989.35
2023-04-04T04:13:09.345Z,989.37
2023-04-04T04:14:09.835Z,989.35
2023-04-04T04:15:10.331Z,989.34
2023-04-04T04:16:10.838Z,989.35
2023-04-04T04:17:11.349Z,989.34
2023-04-04T04:18:11.836Z,989.36
2023-04-04T04:19:12.323Z,989.36
2023-04-04T04:20:12.805Z,989.37
2023-04-04T04:21:13.280Z,989.40
2023-04-04T04:22:13.755Z,989.39
2023-04-04T04:23:14.236Z,989.39
2023-04-04T04:24:14.725Z,989.36
2023-04-04T04:25:15.236Z,989.36
2023-04-04T04:26:15.729Z,989.34
2023-04-04T04:27:16.225Z,989.38
2023-04-04T04:28:16.714Z,989.37
2023-04-04T04:29:17.191Z,989.35
2023-04-04T04:30:17.673Z,989.39
2023-04-04T04:31:18.193Z,989.36
2023-04-04T04:32:18.701Z,989.36
2023-04-04T04:33:19.174Z,989.37
2023-04-04T04:34:19.665Z,989.36
2023-04-04T04:35:20.147Z,989.37
2023-04-04T04:36:20.670Z,989.37
2023-04-04T04:37:21.175Z,989.38
2023-04-04T04:38:21.653Z,989.37
2023-04-04T04:39:22.134Z,989.35
2023-04-04T04:40:22.636Z,989.36
2023-04-04T04:41:23.157Z,989.38
2023-04-04T04:42:23.639Z,989.36
2023-04-04T04:43:24.131Z,989.33
2023-04-04T04:44:24.638Z,989.37
2023-04-04T04:45:25.114Z,989.35
2023-04-04T04:46:25.604Z,989.35
2023-04-04T04:47:26.130Z,989.38
2023-04-04T04:48:26.665Z,989.39
2023-04-04T04:49:27.187Z,989.39
2023-04-04T04:50:27.685Z,989.42
2023-04-04T04:51:28.174Z,989.38
2023-04-04T04:52:28.672Z,989.39
2023-04-04T04:53:29.157Z,989.39
2023-04-04T04:54:29.697Z,989.39
2023-04-04T04:55:30.173Z,989.43
2023-04-04T04:56:30.681Z,989.43
2023-04-04T04:57:31.200Z,989.42
2023-04-04T04:58:31.710Z,989.42
2023-04-04T04:59:32.290Z,989.42
2023-04-04T05:00:32.824Z,989.42
2023-04-04T05:01:33.421Z,989.40
2023-04-04T05:02:34.036Z,989.40
2023-04-04T05:03:34.626Z,989.40
2023-04-04T05:04:35.152Z,989.43
2023-04-04T05:05:35.702Z,989.45
2023-04-04T05:06:36.290Z,989.43
2023-04-04T05:07:36.897Z,989.46
2023-04-04T05:08:37.488Z,989.46
2023-04-04T05:09:38.064Z,989.46
2023-04-04T05:10:38.957Z,989.46
2023-04-04T05:11:39.136Z,989.49
2023-04-04T05:12:39.726Z,989.52
2023-04-04T05:13:40.316Z,989.53
2023-04-04T05:14:40.900Z,989.47
2023-04-04T05:15:41.487Z,989.53
2023-04-04T05:16:42.055Z,989.51
2023-04-04T05:17:42.635Z,989.51
2023-04-04T05:18:43.170Z,989.50
2023-04-04T05:19:43.765Z,989.48
2023-04-04T05:20:44.314Z,989.51
2023-04-04T05:21:44.820Z,989.52
2023-04-04T05:22:45.346Z,989.52
2023-04-04T05:23:45.834Z,989.51
2023-04-04T05:24:46.336Z,989.52
2023-04-04T05:25:46.839Z,989.51
2023-04-04T05:26:47.341Z,989.53
2023-04-04T05:27:47.835Z,989.54
2023-04-04T05:28:48.337Z,989.52
2023-04-04T05:29:48.835Z,989.51
2023-04-04T05:30:49.354Z,989.52
2023-04-04T05:31:49.904Z,989.52
2023-04-04T05:32:50.496Z,989.52
2023-04-04T05:33:51.047Z,989.53
2023-04-04T05:34:51.560Z,989.51
2023-04-04T05:35:52.165Z,989.51
2023-04-04T05:36:52.675Z,989.50
2023-04-04T05:37:53.197Z,989.52
2023-04-04T05:38:53.700Z,989.52
2023-04-04T05:39:54.188Z,989.54
2023-04-04T05:40:54.711Z,989.53
2023-04-04T05:41:55.229Z,989.56
2023-04-04T05:42:55.873Z,989.54
2023-04-04T05:43:56.427Z,989.50
2023-04-04T05:44:56.921Z,989.49
2023-04-04T05:45:57.474Z,989.52
2023-04-04T05:46:58.028Z,989.53
2023-04-04T05:47:58.623Z,989.54
2023-04-04T05:48:59.161Z,989.53
2023-04-04T05:49:59.681Z,989.53
2023-04-04T05:51:00.170Z,989.53
2023-04-04T05:52:00.670Z,989.52
2023-04-04T05:53:01.207Z,989.55
2023-04-04T05:54:01.749Z,989.55
2023-04-04T05:55:02.309Z,989.56
2023-04-04T05:56:02.841Z,989.58
2023-04-04T05:57:03.396Z,989.58
2023-04-04T05:58:04.004Z,989.59
2023-04-04T05:59:04.692Z,989.57
2023-04-04T06:00:04.770Z,989.60
2023-04-04T06:01:05.362Z,989.59
2023-04-04T06:02:05.958Z,989.56
2023-04-04T06:03:06.611Z,989.58
2023-04-04T06:04:06.716Z,989.58
2023-04-04T06:05:07.303Z,989.59
2023-04-04T06:06:07.885Z,989.60
2023-04-04T06:07:08.389Z,989.58
2023-04-04T06:08:08.916Z,989.62
2023-04-04T06:09:09.476Z,989.61
2023-04-04T06:10:09.989Z,989.60
2023-04-04T06:11:10.504Z,989.61
2023-04-04T06:12:11.018Z,989.59
2023-04-04T06:13:11.541Z,989.59
2023-04-04T06:14:13.935Z,989.58
2023-04-04T06:15:12.690Z,989.58
2023-04-04T06:16:13.215Z,989.58
2023-04-04T06:17:13.742Z,989.58
2023-04-04T06:18:14.328Z,989.57
2023-04-04T06:19:14.876Z,989.54
2023-04-04T06:20:15.387Z,989.52
2023-04-04T06:21:15.898Z,989.55
2023-04-04T06:22:16.427Z,989.56
2023-04-04T06:23:16.946Z,989.53
2023-04-04T06:24:17.477Z,989.57
2023-04-04T06:25:17.958Z,989.58
2023-04-04T06:26:18.415Z,989.58
2023-04-04T06:27:18.856Z,989.57
2023-04-04T06:28:19.324Z,989.55
2023-04-04T06:29:19.779Z,989.55
2023-04-04T06:30:20.235Z,989.52
2023-04-04T06:31:20.738Z,989.52
2023-04-04T06:32:21.215Z,989.52
2023-04-04T06:33:21.677Z,989.50
2023-04-04T06:34:22.125Z,989.49
2023-04-04T06:35:22.581Z,989.48
2023-04-04T06:36:23.126Z,989.48
2023-04-04T06:37:23.607Z,989.46
2023-04-04T06:38:24.080Z,989.47
2023-04-04T06:39:24.545Z,989.49
2023-04-04T06:40:24.996Z,989.44
2023-04-04T06:41:25.455Z,989.48
2023-04-04T06:42:25.933Z,989.48
2023-04-04T06:43:26.411Z,989.47
2023-04-04T06:44:26.883Z,989.47
2023-04-04T06:45:27.341Z,989.48
2023-04-04T06:46:27.892Z,989.49
2023-04-04T06:47:28.401Z,989.50
2023-04-04T06:48:28.908Z,989.49
2023-04-04T06:49:29.441Z,989.47
2023-04-04T06:50:29.922Z,989.49
2023-04-04T06:51:30.410Z,989.43
2023-04-04T06:52:30.880Z,989.47
2023-04-04T06:53:31.337Z,989.43
2023-04-04T06:54:31.797Z,989.42
2023-04-04T06:55:32.240Z,989.42
2023-04-04T06:56:32.693Z,989.43
2023-04-04T06:57:33.158Z,989.47
2023-04-04T06:58:33.621Z,989.47
2023-04-04T06:59:34.146Z,989.46
2023-04-04T07:00:34.665Z,989.43
2023-04-04T07:01:35.199Z,989.45
2023-04-04T07:02:35.819Z,989.44
2023-04-04T07:03:35.759Z,989.41
2023-04-04T07:04:36.210Z,989.41
2023-04-04T07:05:36.657Z,989.43
2023-04-04T07:06:37.110Z,989.40
2023-04-04T07:07:37.590Z,989.43
2023-04-04T07:08:38.117Z,989.41
2023-04-04T07:09:38.642Z,989.41
2023-04-04T07:10:40.048Z,989.43
2023-04-04T07:11:39.295Z,989.41
2023-04-04T07:12:39.758Z,989.40
2023-04-04T07:13:40.849Z,989.37
2023-04-04T07:14:40.737Z,989.40
2023-04-04T07:15:41.206Z,989.37
2023-04-04T07:16:41.698Z,989.39
2023-04-04T07:17:42.180Z,989.39
2023-04-04T07:18:42.701Z,989.41
2023-04-04T07:19:43.153Z,989.42
2023-04-04T07:20:43.635Z,989.41
2023-04-04T07:21:44.111Z,989.40
2023-04-04T07:22:44.599Z,989.40
2023-04-04T07:23:45.056Z,989.38
2023-04-04T07:24:45.526Z,989.42
2023-04-04T07:25:45.991Z,989.43
2023-04-04T07:26:46.454Z,989.41
2023-04-04T07:27:46.927Z,989.41
2023-04-04T07:28:47.376Z,989.41
2023-04-04T07:29:47.839Z,989.45
2023-04-04T07:30:48.311Z,989.43
2023-04-04T07:31:48.850Z,989.42
2023-04-04T07:32:49.387Z,989.42
2023-04-04T07:33:49.949Z,989.42
2023-04-04T07:34:50.416Z,989.41
2023-04-04T07:35:50.914Z,989.42
2023-04-04T07:36:51.387Z,989.41
2023-04-04T07:37:51.853Z,989.43
2023-04-04T07:38:52.370Z,989.41
2023-04-04T07:39:52.836Z,989.38
2023-04-04T07:40:53.290Z,989.41
2023-04-04T07:41:53.757Z,989.39
2023-04-04T07:42:54.224Z,989.39
2023-04-04T07:43:54.687Z,989.44
2023-04-04T07:44:55.148Z,989.46
2023-04-04T07:45:55.659Z,989.44
2023-04-04T07:47:08.668Z,989.43
2023-04-04T07:47:56.377Z,989.43
2023-04-04T07:48:56.905Z,989.40
2023-04-04T07:49:57.366Z,989.43
2023-04-04T07:50:57.814Z,989.42
2023-04-04T07:51:58.271Z,989.40
2023-04-04T07:52:58.747Z,989.43
2023-04-04T07:53:59.218Z,989.42
2023-04-04T07:54:59.717Z,989.39
2023-04-04T07:56:00.185Z,989.39
2023-04-04T07:57:00.670Z,989.38
2023-04-04T07:58:01.145Z,989.37
2023-04-04T07:59:01.733Z,989.38
2023-04-04T08:00:02.252Z,989.36
2023-04-04T08:01:02.733Z,989.36
2023-04-04T08:02:03.227Z,989.38
2023-04-04T08:03:03.735Z,989.37
2023-04-04T08:04:04.299Z,989.36
2023-04-04T08:05:04.841Z,989.36
2023-04-04T08:06:05.297Z,989.35
2023-04-04T08:07:05.788Z,989.36
2023-04-04T08:08:06.259Z,989.35
2023-04-04T08:09:06.725Z,989.32
2023-04-04T08:10:07.180Z,989.33
2023-04-04T08:11:07.638Z,989.32
2023-04-04T08:12:08.102Z,989.30
2023-04-04T08:13:08.569Z,989.30
2023-04-04T08:14:09.076Z,989.31
2023-04-04T08:15:09.546Z,989.31
2023-04-04T08:16:10.038Z,989.35
2023-04-04T08:17:10.550Z,989.34
2023-04-04T08:18:11.213Z,989.32
2023-04-04T08:19:11.156Z,989.34
2023-04-04T08:20:11.609Z,989.31
2023-04-04T08:21:12.074Z,989.29
2023-04-04T08:22:12.528Z,989.29
2023-04-04T08:23:13.142Z,989.29
2023-04-04T08:24:13.638Z,989.30
2023-04-04T08:25:14.089Z,989.30
2023-04-04T08:26:14.560Z,989.29
2023-04-04T08:27:15.045Z,989.29
2023-04-04T08:28:15.596Z,989.29
2023-04-04T08:29:16.114Z,989.29
2023-04-04T08:30:16.600Z,989.28
2023-04-04T08:31:17.202Z,989.29
2023-04-04T08:32:17.667Z,989.20
2023-04-04T08:33:18.159Z,989.17
2023-04-04T08:34:18.616Z,989.17
2023-04-04T08:35:19.075Z,989.18
2023-04-04T08:36:19.576Z,989.18
2023-04-04T08:37:20.085Z,989.20
2023-04-04T08:38:20.551Z,989.22
2023-04-04T08:39:21.021Z,989.16
2023-04-04T08:40:21.512Z,989.18
2023-04-04T08:41:22.022Z,989.23
2023-04-04T08:42:22.487Z,989.20
2023-04-04T08:43:22.949Z,989.24
2023-04-04T08:44:23.454Z,989.23
2023-04-04T08:45:23.949Z,989.25
2023-04-04T08:46:24.536Z,989.24
2023-04-04T08:47:25.130Z,989.27
2023-04-04T08:48:25.694Z,989.27
2023-04-04T08:49:26.213Z,989.25
2023-04-04T08:50:26.730Z,989.25
2023-04-04T08:51:27.256Z,989.28
2023-04-04T08:52:27.788Z,989.26
2023-04-04T08:53:28.252Z,989.24
2023-04-04T08:54:28.804Z,989.23
2023-04-04T08:55:29.370Z,989.23
2023-04-04T08:56:29.934Z,989.15
2023-04-04T08:57:30.436Z,989.19
2023-04-04T08:58:30.896Z,989.18
2023-04-04T08:59:31.397Z,989.18
2023-04-04T09:00:31.899Z,989.18
2023-04-04T09:01:32.485Z,989.17
2023-04-04T09:02:33.133Z,989.20
2023-04-04T09:03:33.204Z,989.18
2023-04-04T09:04:33.732Z,989.20
2023-04-04T09:05:34.197Z,989.22
2023-04-04T09:06:34.681Z,989.19
2023-04-04T09:07:37.970Z,989.19
2023-04-04T09:08:35.429Z,989.19
2023-04-04T09:09:35.889Z,989.17
2023-04-04T09:10:36.355Z,989.17
2023-04-04T09:11:36.839Z,989.20
2023-04-04T09:12:37.327Z,989.19
2023-04-04T09:13:39.513Z,989.12
2023-04-04T09:14:37.887Z,989.12
2023-04-04T09:15:38.370Z,989.16
2023-04-04T09:16:38.861Z,989.19
2023-04-04T09:17:39.367Z,989.18
2023-04-04T09:18:39.849Z,989.17
2023-04-04T09:19:40.307Z,989.18
2023-04-04T09:20:41.318Z,989.18
2023-04-04T09:21:40.891Z,989.16
2023-04-04T09:22:41.374Z,989.16
2023-04-04T09:23:41.824Z,989.15
2023-04-04T09:24:42.384Z,989.12
2023-04-04T09:26:43.432Z,989.10
2023-04-04T09:27:43.889Z,989.06
2023-04-04T09:28:44.346Z,989.07
2023-04-04T09:29:44.812Z,989.08
2023-04-04T09:30:45.275Z,989.09
2023-04-04T09:31:45.753Z,989.11
2023-04-04T09:32:46.348Z,989.13
2023-04-04T09:33:46.836Z,989.16
2023-04-04T09:34:47.305Z,989.13
2023-04-04T09:35:47.787Z,989.16
2023-04-04T09:36:48.326Z,989.14
2023-04-04T09:37:48.794Z,989.15
2023-04-04T09:38:49.077Z,989.14
2023-04-04T09:39:49.163Z,989.14
2023-04-04T09:40:49.828Z,989.08
2023-04-04T09:41:50.336Z,989.14
2023-04-04T09:42:50.493Z,989.14
2023-04-04T09:43:50.957Z,989.16
2023-04-04T09:44:51.407Z,989.19
2023-04-04T09:45:51.882Z,989.14
2023-04-04T09:46:52.369Z,989.11
2023-04-04T09:47:52.875Z,989.15
2023-04-04T09:48:53.349Z,989.13
2023-04-04T09:49:53.814Z,989.14
2023-04-04T09:50:54.279Z,989.12
2023-04-04T09:51:54.737Z,989.12
2023-04-04T09:52:55.210Z,989.16
2023-04-04T09:53:55.705Z,989.12
2023-04-04T09:54:56.897Z,989.16
2023-04-04T09:55:56.240Z,989.17
2023-04-04T09:56:56.713Z,989.20
2023-04-04T09:57:57.187Z,989.19
2023-04-04T09:59:03.807Z,989.15
2023-04-04T09:59:57.875Z,989.16
2023-04-04T10:00:58.480Z,989.14
2023-04-04T10:01:59.028Z,989.12
2023-04-04T10:02:59.618Z,989.08
2023-04-04T10:04:00.202Z,989.09
2023-04-04T10:05:06.158Z,989.04
2023-04-04T10:06:00.892Z,989.09
2023-04-04T10:07:01.340Z,989.10
2023-04-04T10:08:01.803Z,989.12
2023-04-04T10:09:02.280Z,989.09
2023-04-04T10:10:02.762Z,989.09
2023-04-04T10:11:11.170Z,989.12
2023-04-04T10:12:03.372Z,989.12
2023-04-04T10:13:03.843Z,989.17
2023-04-04T10:14:04.331Z,989.14
2023-04-04T10:15:04.825Z,989.13
2023-04-04T10:16:05.340Z,989.15
2023-04-04T10:17:06.407Z,989.07
2023-04-04T10:18:06.138Z,989.04
2023-04-04T10:19:06.628Z,989.03
2023-04-04T10:20:07.110Z,989.00
2023-04-04T10:22:06.610Z,989.04
2023-04-04T10:23:08.266Z,989.03
2023-04-04T10:24:08.764Z,989.02
2023-04-04T10:25:09.273Z,989.01
2023-04-04T10:26:09.744Z,989.02
2023-04-04T10:27:10.209Z,989.02
2023-04-04T10:28:10.691Z,989.04
2023-04-04T10:29:11.168Z,989.01
2023-04-04T10:30:11.618Z,989.01
2023-04-04T10:31:12.124Z,989.04
2023-04-04T10:32:12.628Z,989.04
2023-04-04T10:33:13.107Z,989.07
2023-04-04T10:34:13.600Z,989.01
2023-04-04T10:35:14.094Z,989.03
2023-04-04T10:36:14.632Z,989.03
2023-04-04T10:37:15.128Z,988.98
2023-04-04T10:38:15.603Z,988.93
2023-04-04T10:39:16.068Z,988.95
2023-04-04T10:40:16.561Z,988.89
2023-04-04T10:41:17.058Z,988.89
2023-04-04T10:42:17.569Z,988.86
2023-04-04T10:43:18.074Z,988.89
2023-04-04T10:44:18.560Z,988.91
2023-04-04T10:45:21.529Z,988.91
2023-04-04T10:46:19.554Z,988.96
2023-04-04T10:47:20.058Z,988.96
2023-04-04T10:48:20.536Z,988.94
2023-04-04T10:49:21.065Z,988.89
2023-04-04T10:50:21.570Z,988.86
2023-04-04T10:51:22.057Z,988.82
2023-04-04T10:52:22.526Z,988.81
2023-04-04T10:53:24.014Z,988.82
2023-04-04T10:54:23.327Z,988.82
2023-04-04T10:55:23.835Z,988.78
2023-04-04T10:56:24.331Z,988.79
2023-04-04T10:57:24.804Z,988.77
2023-04-04T10:58:25.281Z,988.74
2023-04-04T10:59:25.856Z,988.66
2023-04-04T11:00:26.366Z,988.72
2023-04-04T11:01:26.871Z,988.72
2023-04-04T11:02:27.463Z,988.74
2023-04-04T11:03:28.002Z,988.79
2023-04-04T11:04:28.521Z,988.82
2023-04-04T11:05:29.017Z,988.74
2023-04-04T11:06:29.506Z,988.73
2023-04-04T11:07:30.013Z,988.75
2023-04-04T11:08:30.520Z,988.72
2023-04-04T11:09:31.085Z,988.67
2023-04-04T11:10:31.593Z,988.64
2023-04-04T11:11:32.159Z,988.60
2023-04-04T11:12:32.688Z,988.60
2023-04-04T11:13:33.248Z,988.60
2023-04-04T11:14:33.787Z,988.60
2023-04-04T11:15:34.270Z,988.60
2023-04-04T11:16:34.778Z,988.61
2023-04-04T11:17:35.302Z,988.58
2023-04-04T11:18:35.845Z,988.59
2023-04-04T11:19:36.386Z,988.58
2023-04-04T11:20:36.858Z,988.54
2023-04-04T11:21:37.346Z,988.53
2023-04-04T11:22:37.842Z,988.50
2023-04-04T11:23:38.331Z,988.54
2023-04-04T11:24:38.827Z,988.59
2023-04-04T11:25:39.484Z,988.52
2023-04-04T11:26:39.648Z,988.49
2023-04-04T11:27:40.295Z,988.49
2023-04-04T11:28:40.802Z,988.54
2023-04-04T11:29:41.314Z,988.44
2023-04-04T11:30:41.846Z,988.47
2023-04-04T11:31:42.389Z,988.50
2023-04-04T11:32:47.905Z,988.47
2023-04-04T11:33:43.100Z,988.39
2023-04-04T11:34:43.612Z,988.36
2023-04-04T11:35:44.136Z,988.31
2023-04-04T11:36:44.667Z,988.35
2023-04-04T11:37:45.177Z,988.40
2023-04-04T11:38:45.670Z,988.29
2023-04-04T11:39:46.164Z,988.32
2023-04-04T11:40:46.679Z,988.27
2023-04-04T11:41:47.178Z,988.29
2023-04-04T11:42:47.707Z,988.30
2023-04-04T11:43:48.220Z,988.29
2023-04-04T11:44:48.735Z,988.26
2023-04-04T11:45:49.303Z,988.26
2023-04-04T11:46:51.012Z,988.26
2023-04-04T11:47:49.953Z,988.25
2023-04-04T11:48:50.623Z,988.25
2023-04-04T11:49:51.158Z,988.19
2023-04-04T11:50:51.765Z,988.16
2023-04-04T11:51:51.839Z,988.16
2023-04-04T11:52:53.915Z,988.15
2023-04-04T11:53:52.782Z,988.16
2023-04-04T11:54:53.280Z,988.16
2023-04-04T11:55:53.784Z,988.16
2023-04-04T11:56:54.338Z,988.11
2023-04-04T11:57:54.887Z,988.10
2023-04-04T11:59:08.663Z,988.05
2023-04-04T11:59:55.735Z,988.04
2023-04-04T12:00:55.772Z,988.07
2023-04-04T12:01:56.284Z,988.09
2023-04-04T12:02:56.878Z,988.07
2023-04-04T12:03:57.432Z,988.11
2023-04-04T12:04:57.993Z,988.09
2023-04-04T12:05:58.566Z,988.09
2023-04-04T12:06:59.080Z,988.04
2023-04-04T12:07:59.625Z,988.05
2023-04-04T12:09:00.167Z,988.03
2023-04-04T12:10:00.668Z,988.00
2023-04-04T12:11:01.179Z,987.98
2023-04-04T12:12:01.719Z,987.97
2023-04-04T12:13:02.222Z,987.95
2023-04-04T12:14:02.800Z,987.98
2023-04-04T12:15:16.652Z,987.97
2023-04-04T12:16:03.685Z,987.90
2023-04-04T12:17:04.272Z,987.91
2023-04-04T12:18:04.881Z,987.90
2023-04-04T12:19:05.445Z,987.93
2023-04-04T12:20:05.999Z,987.94
2023-04-04T12:21:06.561Z,987.92
2023-04-04T12:22:07.139Z,987.89
2023-04-04T12:23:07.678Z,987.88
2023-04-04T12:24:08.248Z,987.82
2023-04-04T12:25:08.795Z,987.82
2023-04-04T12:26:09.351Z,987.80
2023-04-04T12:27:09.914Z,987.77
2023-04-04T12:28:10.457Z,987.77
2023-04-04T12:29:10.992Z,987.81
2023-04-04T12:30:11.545Z,987.80
2023-04-04T12:31:12.163Z,987.75
2023-04-04T12:32:12.761Z,987.75
2023-04-04T12:33:13.315Z,987.80
2023-04-04T12:34:13.867Z,987.83
2023-04-04T12:35:14.413Z,987.83
2023-04-04T12:36:14.998Z,987.84